createdAt,value
2023-07-07T00:00:24.611Z,88944.00
2023-07-07T00:01:24.645Z,88944.00
2023-07-07T00:02:24.764Z,88944.00
2023-07-07T00:03:24.684Z,88946.00
2023-07-07T00:04:24.714Z,88948.00
2023-07-07T00:05:24.721Z,88950.00
2023-07-07T00:06:24.738Z,88950.00
2023-07-07T00:07:24.789Z,88948.00
2023-07-07T00:08:24.788Z,88950.00
2023-07-07T00:09:24.814Z,88952.00
2023-07-07T00:10:24.855Z,88950.00
2023-07-07T00:11:24.871Z,88950.00
2023-07-07T00:12:24.890Z,88950.00
2023-07-07T00:13:24.941Z,88948.00
2023-07-07T00:14:24.937Z,88948.00
2023-07-07T00:15:24.973Z,88952.00
2023-07-07T00:16:25.001Z,88952.00
2023-07-07T00:17:25.014Z,88952.00
2023-07-07T00:18:25.013Z,88954.00
2023-07-07T00:19:25.053Z,88954.00
2023-07-07T00:20:25.080Z,88954.00
2023-07-07T00:21:25.117Z,88952.00
2023-07-07T00:22:25.160Z,88954.00
2023-07-07T00:23:25.153Z,88952.00
2023-07-07T00:24:25.127Z,88952.00
2023-07-07T00:25:25.127Z,88950.00
2023-07-07T00:26:25.123Z,88950.00
2023-07-07T00:27:25.128Z,88950.00
2023-07-07T00:28:25.171Z,88952.00
2023-07-07T00:29:25.119Z,88950.00
2023-07-07T00:30:25.276Z,88952.00
2023-07-07T00:31:25.248Z,88954.00
2023-07-07T00:32:25.136Z,88954.00
2023-07-07T00:33:25.104Z,88952.00
2023-07-07T00:34:25.096Z,88952.00
2023-07-07T00:35:25.114Z,88954.00
2023-07-07T00:36:25.097Z,88954.00
2023-07-07T00:37:25.112Z,88954.00
2023-07-07T00:38:25.105Z,88958.00
2023-07-07T00:39:25.113Z,88960.00
2023-07-07T00:40:25.082Z,88964.00
2023-07-07T00:41:25.087Z,88964.00
2023-07-07T00:42:25.096Z,88966.00
2023-07-07T00:43:25.087Z,88968.00
2023-07-07T00:44:25.093Z,88968.00
2023-07-07T00:45:25.105Z,88970.00
2023-07-07T00:46:25.236Z,88970.00
2023-07-07T00:47:25.195Z,88968.00
2023-07-07T00:48:25.190Z,88970.00
2023-07-07T00:49:25.212Z,88972.00
2023-07-07T00:50:25.239Z,88970.00
2023-07-07T00:51:25.273Z,88972.00
2023-07-07T00:52:25.304Z,88975.00
2023-07-07T00:53:25.333Z,88973.00
2023-07-07T00:54:25.365Z,88973.00
2023-07-07T00:55:25.380Z,88975.00
2023-07-07T00:56:25.428Z,88975.00
2023-07-07T00:57:25.474Z,88977.00
2023-07-07T00:58:25.500Z,88979.00
2023-07-07T00:59:25.510Z,88986.00
2023-07-07T01:00:25.543Z,88988.00
2023-07-07T01:01:25.665Z,88990.00
2023-07-07T01:02:25.818Z,88992.00
2023-07-07T01:03:25.622Z,88990.00
2023-07-07T01:04:25.713Z,88990.00
2023-07-07T01:05:25.680Z,88992.00
2023-07-07T01:06:25.719Z,88994.00
2023-07-07T01:07:25.759Z,88992.00
2023-07-07T01:08:25.787Z,88992.00
2023-07-07T01:09:25.825Z,88992.00
2023-07-07T01:10:25.839Z,88994.00
2023-07-07T01:11:25.868Z,88992.00
2023-07-07T01:12:25.897Z,88994.00
2023-07-07T01:13:25.976Z,88996.00
2023-07-07T01:14:25.971Z,88996.00
2023-07-07T01:15:25.997Z,89000.00
2023-07-07T01:16:26.094Z,89000.00
2023-07-07T01:17:26.142Z,89000.00
2023-07-07T01:18:26.121Z,89000.00
2023-07-07T01:19:26.117Z,89000.00
2023-07-07T01:20:26.145Z,89002.00
2023-07-07T01:21:26.160Z,89002.00
2023-07-07T01:22:26.185Z,89002.00
2023-07-07T01:23:26.219Z,89006.00
2023-07-07T01:24:26.233Z,89006.00
2023-07-07T01:25:26.257Z,89008.00
2023-07-07T01:26:26.286Z,89010.00
2023-07-07T01:27:26.323Z,89008.00
2023-07-07T01:28:26.340Z,89008.00
2023-07-07T01:29:26.314Z,89010.00
2023-07-07T01:30:26.329Z,89012.00
2023-07-07T01:31:26.337Z,89012.00
2023-07-07T01:32:26.388Z,89012.00
2023-07-07T01:33:26.316Z,89014.00
2023-07-07T01:34:26.341Z,89014.00
2023-07-07T01:35:26.323Z,89014.00
2023-07-07T01:36:26.333Z,89014.00
2023-07-07T01:37:26.343Z,89014.00
2023-07-07T01:38:26.329Z,89014.00
2023-07-07T01:39:26.312Z,89016.00
2023-07-07T01:40:26.313Z,89012.00
2023-07-07T01:41:26.317Z,89014.00
2023-07-07T01:42:26.317Z,89012.00
2023-07-07T01:43:26.312Z,89010.00
2023-07-07T01:44:26.332Z,89012.00
2023-07-07T01:45:26.321Z,89012.00
2023-07-07T01:46:26.337Z,89008.00
2023-07-07T01:47:26.394Z,89010.00
2023-07-07T01:48:26.357Z,89012.00
2023-07-07T01:49:26.394Z,89012.00
2023-07-07T01:50:26.439Z,89014.00
2023-07-07T01:51:26.474Z,89016.00
2023-07-07T01:52:26.506Z,89016.00
2023-07-07T01:53:26.510Z,89018.00
2023-07-07T01:54:26.558Z,89018.00
2023-07-07T01:55:26.599Z,89020.00
2023-07-07T01:56:26.607Z,89018.00
2023-07-07T01:57:26.648Z,89020.00
2023-07-07T01:58:26.687Z,89018.00
2023-07-07T01:59:26.710Z,89018.00
2023-07-07T02:00:26.755Z,89020.00
2023-07-07T02:01:26.827Z,89018.00
2023-07-07T02:02:26.842Z,89018.00
2023-07-07T02:03:26.825Z,89020.00
2023-07-07T02:04:26.916Z,89020.00
2023-07-07T02:05:28.589Z,89020.00
2023-07-07T02:06:26.898Z,89022.00
2023-07-07T02:07:26.897Z,89020.00
2023-07-07T02:08:26.900Z,89022.00
2023-07-07T02:09:26.897Z,89024.00
2023-07-07T02:10:26.928Z,89020.00
2023-07-07T02:11:26.908Z,89022.00
2023-07-07T02:12:26.908Z,89020.00
2023-07-07T02:13:26.903Z,89020.00
2023-07-07T02:14:26.913Z,89018.00
2023-07-07T02:15:26.911Z,89020.00
2023-07-07T02:16:26.897Z,89018.00
2023-07-07T02:17:26.965Z,89016.00
2023-07-07T02:18:26.940Z,89016.00
2023-07-07T02:19:26.902Z,89018.00
2023-07-07T02:20:26.947Z,89014.00
2023-07-07T02:21:26.926Z,89012.00
2023-07-07T02:22:26.928Z,89014.00
2023-07-07T02:23:26.911Z,89014.00
2023-07-07T02:24:26.932Z,89016.00
2023-07-07T02:25:26.911Z,89014.00
2023-07-07T02:26:26.975Z,89014.00
2023-07-07T02:27:26.965Z,89012.00
2023-07-07T02:28:26.926Z,89010.00
2023-07-07T02:29:26.925Z,89010.00
2023-07-07T02:30:26.933Z,89008.00
2023-07-07T02:31:26.950Z,89006.00
2023-07-07T02:32:26.946Z,89004.00
2023-07-07T02:33:26.920Z,89008.00
2023-07-07T02:34:26.925Z,89002.00
2023-07-07T02:35:26.934Z,89004.00
2023-07-07T02:36:26.929Z,89004.00
2023-07-07T02:37:26.969Z,89004.00
2023-07-07T02:38:26.979Z,89006.00
2023-07-07T02:39:27.004Z,89004.00
2023-07-07T02:40:27.038Z,89008.00
2023-07-07T02:41:27.060Z,89010.00
2023-07-07T02:42:27.099Z,89008.00
2023-07-07T02:43:27.129Z,89010.00
2023-07-07T02:44:27.197Z,89008.00
2023-07-07T02:45:27.184Z,89010.00
2023-07-07T02:46:27.235Z,89010.00
2023-07-07T02:47:27.260Z,89012.00
2023-07-07T02:48:27.268Z,89010.00
2023-07-07T02:49:27.315Z,89010.00
2023-07-07T02:50:27.327Z,89012.00
2023-07-07T02:51:27.364Z,89012.00
2023-07-07T02:52:27.388Z,89012.00
2023-07-07T02:53:27.414Z,89012.00
2023-07-07T02:54:27.463Z,89012.00
2023-07-07T02:55:27.476Z,89010.00
2023-07-07T02:56:28.290Z,89010.00
2023-07-07T02:57:27.548Z,89012.00
2023-07-07T02:58:27.560Z,89010.00
2023-07-07T02:59:27.588Z,89012.00
2023-07-07T03:00:27.631Z,89012.00
2023-07-07T03:01:27.684Z,89016.00
2023-07-07T03:02:27.672Z,89016.00
2023-07-07T03:03:27.780Z,89012.00
2023-07-07T03:04:27.729Z,89014.00
2023-07-07T03:05:27.762Z,89014.00
2023-07-07T03:06:27.799Z,89018.00
2023-07-07T03:07:27.816Z,89016.00
2023-07-07T03:08:27.851Z,89014.00
2023-07-07T03:09:27.892Z,89008.00
2023-07-07T03:10:27.940Z,89008.00
2023-07-07T03:11:27.946Z,89012.00
2023-07-07T03:12:27.987Z,89014.00
2023-07-07T03:13:28.047Z,89012.00
2023-07-07T03:14:28.066Z,89008.00
2023-07-07T03:15:28.116Z,89010.00
2023-07-07T03:16:28.138Z,89006.00
2023-07-07T03:17:28.178Z,89010.00
2023-07-07T03:18:28.197Z,89010.00
2023-07-07T03:19:28.229Z,89012.00
2023-07-07T03:20:28.258Z,89012.00
2023-07-07T03:21:28.317Z,89012.00
2023-07-07T03:22:28.345Z,89008.00
2023-07-07T03:23:28.376Z,89012.00
2023-07-07T03:24:28.424Z,89012.00
2023-07-07T03:25:28.441Z,89010.00
2023-07-07T03:26:28.476Z,89010.00
2023-07-07T03:27:28.498Z,89010.00
2023-07-07T03:28:28.529Z,89010.00
2023-07-07T03:29:28.571Z,89012.00
2023-07-07T03:30:28.608Z,89008.00
2023-07-07T03:31:28.806Z,89012.00
2023-07-07T03:32:28.690Z,89014.00
2023-07-07T03:33:28.696Z,89012.00
2023-07-07T03:34:28.755Z,89014.00
2023-07-07T03:35:28.797Z,89016.00
2023-07-07T03:36:28.825Z,89018.00
2023-07-07T03:37:28.848Z,89020.00
2023-07-07T03:38:28.858Z,89024.00
2023-07-07T03:39:28.859Z,89026.00
2023-07-07T03:40:28.860Z,89022.00
2023-07-07T03:41:28.869Z,89026.00
2023-07-07T03:42:28.892Z,89022.00
2023-07-07T03:43:28.898Z,89026.00
2023-07-07T03:44:28.863Z,89026.00
2023-07-07T03:45:28.871Z,89026.00
2023-07-07T03:46:28.966Z,89026.00
2023-07-07T03:47:28.909Z,89026.00
2023-07-07T03:48:28.899Z,89028.00
2023-07-07T03:49:28.908Z,89030.00
2023-07-07T03:50:28.918Z,89030.00
2023-07-07T03:51:28.903Z,89030.00
2023-07-07T03:52:28.911Z,89032.00
2023-07-07T03:53:28.931Z,89030.00
2023-07-07T03:54:28.921Z,89036.00
2023-07-07T03:55:28.960Z,89032.00
2023-07-07T03:56:28.949Z,89038.00
2023-07-07T03:57:28.994Z,89038.00
2023-07-07T03:58:29.024Z,89040.00
2023-07-07T03:59:29.060Z,89038.00
2023-07-07T04:00:29.098Z,89036.00
2023-07-07T04:01:29.130Z,89041.00
2023-07-07T04:02:29.178Z,89041.00
2023-07-07T04:03:29.356Z,89041.00
2023-07-07T04:04:29.423Z,89040.00
2023-07-07T04:05:29.286Z,89040.00
2023-07-07T04:06:29.288Z,89040.00
2023-07-07T04:07:29.279Z,89038.00
2023-07-07T04:08:29.273Z,89040.00
2023-07-07T04:09:29.320Z,89040.00
2023-07-07T04:10:29.295Z,89040.00
2023-07-07T04:11:29.279Z,89038.00
2023-07-07T04:12:29.288Z,89036.00
2023-07-07T04:13:29.347Z,89038.00
2023-07-07T04:14:29.343Z,89036.00
2023-07-07T04:15:29.291Z,89036.00
2023-07-07T04:16:29.334Z,89040.00
2023-07-07T04:17:29.359Z,89041.00
2023-07-07T04:18:29.329Z,89041.00
2023-07-07T04:19:29.338Z,89041.00
2023-07-07T04:20:29.331Z,89040.00
2023-07-07T04:21:29.334Z,89040.00
2023-07-07T04:22:29.337Z,89041.00
2023-07-07T04:23:29.343Z,89040.00
2023-07-07T04:24:29.358Z,89043.00
2023-07-07T04:25:29.354Z,89038.00
2023-07-07T04:26:29.381Z,89038.00
2023-07-07T04:27:29.376Z,89041.00
2023-07-07T04:28:29.377Z,89038.00
2023-07-07T04:29:29.390Z,89038.00
2023-07-07T04:30:29.384Z,89038.00
2023-07-07T04:31:29.494Z,89038.00
2023-07-07T04:32:29.454Z,89041.00
2023-07-07T04:33:29.397Z,89040.00
2023-07-07T04:34:29.414Z,89038.00
2023-07-07T04:35:29.406Z,89041.00
2023-07-07T04:36:29.394Z,89043.00
2023-07-07T04:37:29.421Z,89043.00
2023-07-07T04:38:29.462Z,89041.00
2023-07-07T04:39:29.425Z,89043.00
2023-07-07T04:40:29.475Z,89041.00
2023-07-07T04:41:29.520Z,89047.00
2023-07-07T04:42:29.581Z,89045.00
2023-07-07T04:43:29.571Z,89047.00
2023-07-07T04:44:29.618Z,89047.00
2023-07-07T04:45:29.651Z,89047.00
2023-07-07T04:46:29.743Z,89047.00
2023-07-07T04:47:29.757Z,89045.00
2023-07-07T04:48:29.799Z,89045.00
2023-07-07T04:49:29.816Z,89045.00
2023-07-07T04:50:29.872Z,89047.00
2023-07-07T04:51:29.887Z,89051.00
2023-07-07T04:52:29.940Z,89051.00
2023-07-07T04:53:30.042Z,89053.00
2023-07-07T04:54:29.992Z,89053.00
2023-07-07T04:55:30.035Z,89055.00
2023-07-07T04:56:30.066Z,89057.00
2023-07-07T04:57:30.114Z,89059.00
2023-07-07T04:58:30.145Z,89057.00
2023-07-07T04:59:30.179Z,89059.00
2023-07-07T05:00:30.224Z,89063.00
2023-07-07T05:01:30.278Z,89065.00
2023-07-07T05:02:30.339Z,89065.00
2023-07-07T05:03:30.368Z,89065.00
2023-07-07T05:04:30.363Z,89061.00
2023-07-07T05:05:30.404Z,89063.00
2023-07-07T05:06:30.543Z,89067.00
2023-07-07T05:07:30.517Z,89065.00
2023-07-07T05:08:30.514Z,89065.00
2023-07-07T05:09:30.595Z,89063.00
2023-07-07T05:10:30.605Z,89065.00
2023-07-07T05:11:30.641Z,89065.00
2023-07-07T05:12:30.693Z,89067.00
2023-07-07T05:13:30.823Z,89067.00
2023-07-07T05:14:30.823Z,89067.00
2023-07-07T05:15:30.784Z,89069.00
2023-07-07T05:16:30.981Z,89069.00
2023-07-07T05:17:30.945Z,89069.00
2023-07-07T05:18:30.907Z,89069.00
2023-07-07T05:19:30.943Z,89071.00
2023-07-07T05:20:31.013Z,89069.00
2023-07-07T05:21:31.037Z,89067.00
2023-07-07T05:22:31.068Z,89069.00
2023-07-07T05:23:31.104Z,89067.00
2023-07-07T05:24:31.136Z,89065.00
2023-07-07T05:25:31.177Z,89067.00
2023-07-07T05:26:31.213Z,89067.00
2023-07-07T05:27:31.367Z,89067.00
2023-07-07T05:28:31.295Z,89067.00
2023-07-07T05:29:31.318Z,89067.00
2023-07-07T05:30:31.366Z,89067.00
2023-07-07T05:31:31.544Z,89069.00
2023-07-07T05:32:31.496Z,89073.00
2023-07-07T05:33:33.993Z,89071.00
2023-07-07T05:34:31.519Z,89069.00
2023-07-07T05:35:31.489Z,89071.00
2023-07-07T05:36:31.572Z,89069.00
2023-07-07T05:37:31.509Z,89071.00
2023-07-07T05:38:31.549Z,89075.00
2023-07-07T05:39:31.518Z,89073.00
2023-07-07T05:40:31.522Z,89069.00
2023-07-07T05:41:31.510Z,89075.00
2023-07-07T05:42:31.520Z,89073.00
2023-07-07T05:43:31.507Z,89073.00
2023-07-07T05:44:31.515Z,89071.00
2023-07-07T05:45:31.519Z,89073.00
2023-07-07T05:46:31.588Z,89075.00
2023-07-07T05:47:31.582Z,89073.00
2023-07-07T05:48:31.520Z,89073.00
2023-07-07T05:49:31.572Z,89075.00
2023-07-07T05:50:31.602Z,89075.00
2023-07-07T05:51:31.541Z,89077.00
2023-07-07T05:52:31.569Z,89079.00
2023-07-07T05:53:31.537Z,89075.00
2023-07-07T05:54:31.518Z,89075.00
2023-07-07T05:55:31.513Z,89075.00
2023-07-07T05:56:31.524Z,89075.00
2023-07-07T05:57:31.526Z,89073.00
2023-07-07T05:58:31.514Z,89073.00
2023-07-07T05:59:31.538Z,89073.00
2023-07-07T06:00:31.562Z,89071.00
2023-07-07T06:01:31.554Z,89071.00
2023-07-07T06:02:31.605Z,89069.00
2023-07-07T06:03:31.606Z,89071.00
2023-07-07T06:04:31.504Z,89075.00
2023-07-07T06:05:31.672Z,89071.00
2023-07-07T06:06:31.500Z,89071.00
2023-07-07T06:07:31.472Z,89071.00
2023-07-07T06:08:31.477Z,89067.00
2023-07-07T06:09:31.515Z,89069.00
2023-07-07T06:10:31.496Z,89067.00
2023-07-07T06:11:31.443Z,89067.00
2023-07-07T06:12:31.573Z,89071.00
2023-07-07T06:13:31.619Z,89067.00
2023-07-07T06:14:31.403Z,89067.00
2023-07-07T06:15:31.475Z,89069.00
2023-07-07T06:16:31.423Z,89069.00
2023-07-07T06:17:31.444Z,89065.00
2023-07-07T06:18:31.373Z,89069.00
2023-07-07T06:19:31.400Z,89067.00
2023-07-07T06:20:31.468Z,89067.00
2023-07-07T06:21:31.599Z,89069.00
2023-07-07T06:22:31.618Z,89067.00
2023-07-07T06:23:31.617Z,89065.00
2023-07-07T06:24:31.693Z,89065.00
2023-07-07T06:25:32.124Z,89065.00
2023-07-07T06:26:31.804Z,89063.00
2023-07-07T06:27:31.856Z,89065.00
2023-07-07T06:28:31.883Z,89067.00
2023-07-07T06:29:31.952Z,89069.00
2023-07-07T06:30:31.964Z,89067.00
2023-07-07T06:31:32.078Z,89067.00
2023-07-07T06:32:32.085Z,89065.00
2023-07-07T06:33:32.079Z,89065.00
2023-07-07T06:34:32.146Z,89067.00
2023-07-07T06:35:32.185Z,89067.00
2023-07-07T06:36:32.198Z,89065.00
2023-07-07T06:37:32.733Z,89067.00
2023-07-07T06:38:32.269Z,89065.00
2023-07-07T06:39:32.328Z,89067.00
2023-07-07T06:40:32.301Z,89065.00
2023-07-07T06:41:32.320Z,89069.00
2023-07-07T06:42:32.337Z,89065.00
2023-07-07T06:43:32.396Z,89061.00
2023-07-07T06:44:32.408Z,89061.00
2023-07-07T06:45:32.446Z,89061.00
2023-07-07T06:46:32.432Z,89061.00
2023-07-07T06:47:32.552Z,89061.00
2023-07-07T06:48:32.559Z,89063.00
2023-07-07T06:49:32.522Z,89061.00
2023-07-07T06:50:32.646Z,89061.00
2023-07-07T06:51:32.598Z,89063.00
2023-07-07T06:52:32.511Z,89059.00
2023-07-07T06:53:32.491Z,89057.00
2023-07-07T06:54:32.467Z,89059.00
2023-07-07T06:55:32.489Z,89057.00
2023-07-07T06:56:32.426Z,89055.00
2023-07-07T06:57:32.440Z,89057.00
2023-07-07T06:58:33.210Z,89059.00
2023-07-07T06:59:32.441Z,89065.00
2023-07-07T07:00:32.348Z,89057.00
2023-07-07T07:01:32.425Z,89049.00
2023-07-07T07:02:32.326Z,89059.00
2023-07-07T07:03:32.342Z,89057.00
2023-07-07T07:04:32.296Z,89055.00
2023-07-07T07:05:32.224Z,89053.00
2023-07-07T07:06:32.213Z,89055.00
2023-07-07T07:07:32.179Z,89057.00
2023-07-07T07:08:32.178Z,89057.00
2023-07-07T07:09:32.139Z,89057.00
2023-07-07T07:10:32.197Z,89055.00
2023-07-07T07:11:32.085Z,89053.00
2023-07-07T07:12:32.054Z,89055.00
2023-07-07T07:13:32.115Z,89057.00
2023-07-07T07:14:32.016Z,89055.00
2023-07-07T07:15:32.102Z,89059.00
2023-07-07T07:16:32.062Z,89059.00
2023-07-07T07:17:35.053Z,89059.00
2023-07-07T07:18:31.933Z,89057.00
2023-07-07T07:19:31.919Z,89053.00
2023-07-07T07:20:31.989Z,89051.00
2023-07-07T07:21:31.879Z,89051.00
2023-07-07T07:22:31.884Z,89049.00
2023-07-07T07:23:32.915Z,89051.00
2023-07-07T07:24:31.803Z,89049.00
2023-07-07T07:25:31.779Z,89047.00
2023-07-07T07:26:31.765Z,89047.00
2023-07-07T07:27:31.739Z,89043.00
2023-07-07T07:28:31.704Z,89047.00
2023-07-07T07:29:31.672Z,89045.00
2023-07-07T07:30:31.651Z,89045.00
2023-07-07T07:31:31.648Z,89043.00
2023-07-07T07:32:31.691Z,89041.00
2023-07-07T07:33:31.610Z,89043.00
2023-07-07T07:34:32.598Z,89043.00
2023-07-07T07:35:31.554Z,89043.00
2023-07-07T07:36:31.546Z,89040.00
2023-07-07T07:37:31.520Z,89040.00
2023-07-07T07:38:31.508Z,89038.00
2023-07-07T07:39:31.477Z,89038.00
2023-07-07T07:40:31.483Z,89038.00
2023-07-07T07:41:31.423Z,89038.00
2023-07-07T07:42:31.448Z,89036.00
2023-07-07T07:43:31.388Z,89040.00
2023-07-07T07:44:31.383Z,89040.00
2023-07-07T07:45:31.377Z,89036.00
2023-07-07T07:46:31.324Z,89036.00
2023-07-07T07:47:31.471Z,89036.00
2023-07-07T07:48:31.267Z,89036.00
2023-07-07T07:49:31.255Z,89032.00
2023-07-07T07:50:31.228Z,89034.00
2023-07-07T07:51:36.652Z,89036.00
2023-07-07T07:52:32.201Z,89034.00
2023-07-07T07:53:31.171Z,89034.00
2023-07-07T07:54:31.164Z,89034.00
2023-07-07T07:55:31.111Z,89038.00
2023-07-07T07:56:31.132Z,89034.00
2023-07-07T07:57:31.077Z,89034.00
2023-07-07T07:58:31.070Z,89036.00
2023-07-07T07:59:31.042Z,89032.00
2023-07-07T08:00:31.122Z,89032.00
2023-07-07T08:01:31.038Z,89030.00
2023-07-07T08:02:30.989Z,89032.00
2023-07-07T08:03:31.009Z,89034.00
2023-07-07T08:04:30.946Z,89034.00
2023-07-07T08:05:30.917Z,89032.00
2023-07-07T08:06:30.923Z,89030.00
2023-07-07T08:07:30.894Z,89034.00
2023-07-07T08:08:30.893Z,89036.00
2023-07-07T08:09:30.859Z,89034.00
2023-07-07T08:10:30.832Z,89036.00
2023-07-07T08:11:30.796Z,89036.00
2023-07-07T08:12:30.795Z,89038.00
2023-07-07T08:13:40.028Z,89036.00
2023-07-07T08:14:31.935Z,89038.00
2023-07-07T08:15:30.732Z,89036.00
2023-07-07T08:16:30.769Z,89034.00
2023-07-07T08:17:30.686Z,89034.00
2023-07-07T08:18:30.648Z,89032.00
2023-07-07T08:19:30.643Z,89034.00
2023-07-07T08:20:30.599Z,89032.00
2023-07-07T08:21:30.638Z,89030.00
2023-07-07T08:22:30.567Z,89030.00
2023-07-07T08:23:30.542Z,89032.00
2023-07-07T08:24:30.501Z,89028.00
2023-07-07T08:25:30.472Z,89028.00
2023-07-07T08:26:30.560Z,89028.00
2023-07-07T08:28:31.004Z,89026.00
2023-07-07T08:29:30.370Z,89028.00
2023-07-07T08:30:30.366Z,89024.00
2023-07-07T08:31:30.409Z,89026.00
2023-07-07T08:32:30.350Z,89028.00
2023-07-07T08:33:30.294Z,89024.00
2023-07-07T08:34:38.531Z,89024.00
2023-07-07T08:35:31.239Z,89024.00
2023-07-07T08:36:30.202Z,89022.00
2023-07-07T08:37:30.179Z,89022.00
2023-07-07T08:38:30.145Z,89022.00
2023-07-07T08:39:30.116Z,89022.00
2023-07-07T08:40:30.119Z,89018.00
2023-07-07T08:41:30.116Z,89018.00
2023-07-07T08:42:30.090Z,89018.00
2023-07-07T08:43:30.042Z,89020.00
2023-07-07T08:44:30.026Z,89024.00
2023-07-07T08:45:30.003Z,89014.00
2023-07-07T08:46:29.994Z,89016.00
2023-07-07T08:47:29.977Z,89014.00
2023-07-07T08:48:29.956Z,89014.00
2023-07-07T08:49:29.896Z,89012.00
2023-07-07T08:50:30.619Z,89016.00
2023-07-07T08:51:29.858Z,89014.00
2023-07-07T08:52:29.828Z,89014.00
2023-07-07T08:53:29.819Z,89018.00
2023-07-07T08:55:30.754Z,89014.00
2023-07-07T08:56:29.737Z,89014.00
2023-07-07T08:57:29.708Z,89014.00
2023-07-07T08:58:30.361Z,89014.00
2023-07-07T08:59:29.701Z,89012.00
2023-07-07T09:00:29.636Z,89008.00
2023-07-07T09:01:29.649Z,89010.00
2023-07-07T09:02:29.602Z,89008.00
2023-07-07T09:03:29.583Z,89008.00
2023-07-07T09:04:29.695Z,89006.00
2023-07-07T09:05:29.588Z,89006.00
2023-07-07T09:06:29.513Z,89004.00
2023-07-07T09:07:29.490Z,89004.00
2023-07-07T09:08:35.339Z,89002.00
2023-07-07T09:09:30.442Z,89006.00
2023-07-07T09:10:29.412Z,89004.00
2023-07-07T09:11:29.448Z,89004.00
2023-07-07T09:12:29.379Z,89002.00
2023-07-07T09:13:29.445Z,89000.00
2023-07-07T09:14:29.345Z,89000.00
2023-07-07T09:15:29.322Z,88998.00
2023-07-07T09:16:29.314Z,88996.00
2023-07-07T09:17:29.283Z,88996.00
2023-07-07T09:18:29.269Z,88996.00
2023-07-07T09:19:29.216Z,88996.00
2023-07-07T09:20:29.197Z,88994.00
2023-07-07T09:21:29.216Z,88990.00
2023-07-07T09:22:29.198Z,88992.00
2023-07-07T09:23:29.127Z,88988.00
2023-07-07T09:24:29.087Z,88990.00
2023-07-07T09:25:34.728Z,88990.00
2023-07-07T09:26:30.047Z,88992.00
2023-07-07T09:27:29.010Z,88992.00
2023-07-07T09:28:28.988Z,88990.00
2023-07-07T09:29:28.955Z,88988.00
2023-07-07T09:30:28.949Z,88988.00
2023-07-07T09:31:28.972Z,88988.00
2023-07-07T09:32:28.914Z,88988.00
2023-07-07T09:33:28.865Z,88986.00
2023-07-07T09:34:28.833Z,88988.00
2023-07-07T09:35:28.826Z,88990.00
2023-07-07T09:36:28.797Z,88988.00
2023-07-07T09:37:28.762Z,88988.00
2023-07-07T09:38:28.733Z,88990.00
2023-07-07T09:39:28.701Z,88990.00
2023-07-07T09:40:28.736Z,88988.00
2023-07-07T09:41:28.648Z,88990.00
2023-07-07T09:42:28.634Z,88992.00
2023-07-07T09:43:29.883Z,88994.00
2023-07-07T09:44:28.578Z,88990.00
2023-07-07T09:45:28.543Z,88992.00
2023-07-07T09:46:28.610Z,88994.00
2023-07-07T09:47:28.518Z,88994.00
2023-07-07T09:48:28.478Z,88994.00
2023-07-07T09:49:28.478Z,88994.00
2023-07-07T09:50:28.447Z,88994.00
2023-07-07T09:51:28.413Z,88994.00
2023-07-07T09:52:28.383Z,88992.00
2023-07-07T09:53:32.913Z,88994.00
2023-07-07T09:54:29.350Z,88992.00
2023-07-07T09:55:28.328Z,88990.00
2023-07-07T09:56:28.311Z,88994.00
2023-07-07T09:57:28.280Z,88994.00
2023-07-07T09:58:28.264Z,88992.00
2023-07-07T09:59:28.231Z,88990.00
2023-07-07T10:00:43.846Z,88990.00
2023-07-07T10:01:29.188Z,88990.00
2023-07-07T10:02:28.195Z,88992.00
2023-07-07T10:03:28.122Z,88990.00
2023-07-07T10:04:28.138Z,88988.00
2023-07-07T10:05:28.065Z,88988.00
2023-07-07T10:06:28.038Z,88988.00
2023-07-07T10:07:28.042Z,88990.00
2023-07-07T10:08:28.006Z,88988.00
2023-07-07T10:09:27.976Z,88988.00
2023-07-07T10:10:27.941Z,88988.00
2023-07-07T10:12:31.960Z,88990.00
2023-07-07T10:13:27.897Z,88990.00
2023-07-07T10:14:27.845Z,88986.00
2023-07-07T10:15:27.811Z,88990.00
2023-07-07T10:16:27.829Z,88990.00
2023-07-07T10:17:27.828Z,88988.00
2023-07-07T10:18:33.056Z,88988.00
2023-07-07T10:19:28.708Z,88988.00
2023-07-07T10:20:27.680Z,88988.00
2023-07-07T10:21:27.658Z,88988.00
2023-07-07T10:22:27.628Z,88988.00
2023-07-07T10:23:27.595Z,88990.00
2023-07-07T10:24:27.563Z,88990.00
2023-07-07T10:25:27.553Z,88990.00
2023-07-07T10:26:27.519Z,88988.00
2023-07-07T10:27:27.481Z,88990.00
2023-07-07T10:28:27.489Z,88990.00
2023-07-07T10:29:27.451Z,88988.00
2023-07-07T10:30:27.415Z,88990.00
2023-07-07T10:31:27.393Z,88988.00
2023-07-07T10:32:27.406Z,88988.00
2023-07-07T10:33:27.342Z,88988.00
2023-07-07T10:34:27.318Z,88988.00
2023-07-07T10:35:27.290Z,88990.00
2023-07-07T10:36:27.231Z,88990.00
2023-07-07T10:37:27.217Z,88990.00
2023-07-07T10:38:28.614Z,88990.00
2023-07-07T10:39:27.137Z,88990.00
2023-07-07T10:40:27.137Z,88990.00
2023-07-07T10:41:27.096Z,88990.00
2023-07-07T10:42:27.069Z,88990.00
2023-07-07T10:43:27.036Z,88988.00
2023-07-07T10:44:27.004Z,88988.00
2023-07-07T10:45:26.971Z,88986.00
2023-07-07T10:46:26.976Z,88979.00
2023-07-07T10:47:26.950Z,88986.00
2023-07-07T10:48:26.900Z,88979.00
2023-07-07T10:49:26.866Z,88986.00
2023-07-07T10:50:26.882Z,88986.00
2023-07-07T10:51:26.805Z,88988.00
2023-07-07T10:53:22.856Z,88990.00
2023-07-07T10:53:26.770Z,88988.00
2023-07-07T10:54:27.459Z,88986.00
2023-07-07T10:55:26.706Z,88988.00
2023-07-07T10:56:26.691Z,88986.00
2023-07-07T10:57:26.641Z,88979.00
2023-07-07T10:58:26.646Z,88975.00
2023-07-07T10:59:26.589Z,88975.00
2023-07-07T11:00:31.465Z,88972.00
2023-07-07T11:01:27.556Z,88972.00
2023-07-07T11:02:26.557Z,88972.00
2023-07-07T11:03:27.288Z,88972.00
2023-07-07T11:04:26.473Z,88970.00
2023-07-07T11:05:27.314Z,88970.00
2023-07-07T11:06:26.430Z,88966.00
2023-07-07T11:07:26.386Z,88964.00
2023-07-07T11:08:26.374Z,88964.00
2023-07-07T11:09:26.329Z,88962.00
2023-07-07T11:10:26.573Z,88962.00
2023-07-07T11:11:26.280Z,88960.00
2023-07-07T11:12:26.336Z,88964.00
2023-07-07T11:13:26.250Z,88962.00
2023-07-07T11:14:26.196Z,88960.00
2023-07-07T11:15:26.179Z,88960.00
2023-07-07T11:16:26.149Z,88962.00
2023-07-07T11:17:26.112Z,88960.00
2023-07-07T11:18:26.082Z,88960.00
2023-07-07T11:19:26.057Z,88956.00
2023-07-07T11:20:26.017Z,88956.00
2023-07-07T11:21:25.981Z,88952.00
2023-07-07T11:22:25.954Z,88952.00
2023-07-07T11:23:26.489Z,88954.00
2023-07-07T11:24:48.617Z,88956.00
2023-07-07T11:25:27.025Z,88952.00
2023-07-07T11:26:25.852Z,88952.00
2023-07-07T11:27:25.814Z,88952.00
2023-07-07T11:28:25.842Z,88950.00
2023-07-07T11:29:25.753Z,88952.00
2023-07-07T11:30:25.740Z,88952.00
2023-07-07T11:31:25.716Z,88952.00
2023-07-07T11:32:25.709Z,88952.00
2023-07-07T11:33:25.673Z,88952.00
2023-07-07T11:34:25.663Z,88956.00
2023-07-07T11:35:25.576Z,88952.00
2023-07-07T11:36:25.545Z,88954.00
2023-07-07T11:37:25.535Z,88954.00
2023-07-07T11:38:25.506Z,88948.00
2023-07-07T11:39:25.480Z,88948.00
2023-07-07T11:40:25.435Z,88946.00
2023-07-07T11:41:25.402Z,88948.00
2023-07-07T11:42:25.376Z,88946.00
2023-07-07T11:43:25.341Z,88944.00
2023-07-07T11:44:25.307Z,88946.00
2023-07-07T11:45:25.335Z,88948.00
2023-07-07T11:46:25.323Z,88944.00
2023-07-07T11:47:25.257Z,88948.00